Stolt Vanguard — D5AF5 — position and weather

sailwx.info

Track history (hours):
 
Tides and Currents Weather Stations Pressure Air Temp Water Temp Dewpoint Dewpoint Depression Visibility Wind Speed Wind Dir Waves Ship Positions

Stolt Vanguard

Last reported at 2018-Feb-09 23:42 UTC. Time now 2018-Feb-23 10:53 UTC.
Position N 17°36' W 061°09'.
Warning: this ship's position is 13 days out of date.

Length 159 m; draft 10.5 m.

Type: Tanker. MMSI: 636015366.

Date/timePositionNaut miles runAvg speedWind from/ knotsBaromVisibWave heightAir tempDewpointWater temp
2018-Feb-09 23:42N 17°36' W 061°09'211.3
2018-Feb-09 23:31N 17°37' W 061°11'611.4
2018-Feb-09 23:01N 17°40' W 061°16'411.6
2018-Feb-09 22:38N 17°43' W 061°20'  
2018-Feb-03 02:00N 29°31' W 094°53'5 9.4
2018-Feb-03 01:31N 29°35' W 094°56'4 8.1
2018-Feb-03 01:00N 29°38' W 094°58'4 7.3
2018-Feb-03 00:30N 29°42' W 094°59'4 6.9
2018-Feb-02 23:58N 29°44' W 095°03'3 0.2
2018-Feb-02 07:00N 29°45' W 095°06'2 4.3
2018-Feb-02 06:30N 29°44' W 095°04'3 6.5
2018-Feb-02 06:00N 29°42' W 095°01'5 9.6
2018-Feb-02 05:30N 29°38' W 094°58'611.3
2018-Feb-02 05:00N 29°33' W 094°55'612.4
2018-Feb-02 04:30N 29°28' W 094°51'812.8
2018-Feb-02 03:54N 29°21' W 094°47'1011.9
2018-Feb-02 03:04N 29°18' W 094°36'5 0.3
2018-Feb-01 08:42N 29°16' W 094°31'0 0.0
2018-Feb-01 08:07N 29°16' W 094°31'0 0.0
2018-Feb-01 07:27N 29°16' W 094°31'0 0.5
2018-Feb-01 06:53N 29°16' W 094°30'2 4.5
2018-Feb-01 06:27N 29°14' W 094°30'2410.0
2018-Feb-01 04:02N 29°24' W 094°04'012.1
2018-Feb-01 04:00N 29°24' W 094°04'1212.1
2018-Feb-01 02:58N 29°30' W 093°52'611.6
2018-Feb-01 02:29N 29°33' W 093°46'510.2
2018-Feb-01 01:57N 29°38' W 093°49'510.3
2018-Feb-01 01:31N 29°42' W 093°51'5 9.0
2018-Feb-01 01:00N 29°46' W 093°54'4 8.1
2018-Feb-01 00:30N 29°48' W 093°57'2 3.5
2018-Feb-01 00:00N 29°50' W 093°57'0 0.0
2018-Jan-31 22:59N 29°50' W 093°57'0 0.0
2018-Jan-31 22:30N 29°50' W 093°57'0 0.0
2018-Jan-31 21:00N 29°50' W 093°57'0 0.0
2018-Jan-31 20:31N 29°50' W 093°57'0 0.0
2018-Jan-31 20:00N 29°50' W 093°57'0 0.0
2018-Jan-31 19:30N 29°50' W 093°57'0 0.0
2018-Jan-31 19:01N 29°50' W 093°57'0 0.0
2018-Jan-31 18:30N 29°50' W 093°57'0 0.0
2018-Jan-31 18:00N 29°50' W 093°57'0 0.0
2018-Jan-31 17:30N 29°50' W 093°57'0 0.0
2018-Jan-31 17:00N 29°50' W 093°57'0 0.0
2018-Jan-31 16:29N 29°50' W 093°57'0 0.0
2018-Jan-31 16:00N 29°50' W 093°57'0 0.0
2018-Jan-31 15:30N 29°50' W 093°57'0 0.0
2018-Jan-31 15:00N 29°50' W 093°57'0 0.0
2018-Jan-31 14:30N 29°50' W 093°57'0 0.0
2018-Jan-31 13:00N 29°50' W 093°57'0 0.0
2018-Jan-31 12:30N 29°50' W 093°57'0 0.0
2018-Jan-31 12:00N 29°50' W 093°57'0 0.0
2018-Jan-31 11:30N 29°50' W 093°57'0 0.0
2018-Jan-31 11:00N 29°50' W 093°57'0 0.0
2018-Jan-31 10:30N 29°50' W 093°57'0 0.0
2018-Jan-31 10:00N 29°50' W 093°57'0 0.0
2018-Jan-31 09:30N 29°50' W 093°57'0 0.0
2018-Jan-31 09:00N 29°50' W 093°57'0 0.0
2018-Jan-31 08:30N 29°50' W 093°57'0 0.0
2018-Jan-31 08:00N 29°50' W 093°57'0 0.0
2018-Jan-31 07:30N 29°50' W 093°57'0 0.0
2018-Jan-31 07:00N 29°50' W 093°57'0 0.0
2018-Jan-31 06:30N 29°50' W 093°57'0 0.0
2018-Jan-31 05:58N 29°50' W 093°57'0 1.0
2018-Jan-31 05:30N 29°50' W 093°58'2 4.1
2018-Jan-31 05:00N 29°51' W 093°56'3 6.9
2018-Jan-31 04:30N 29°54' W 093°54'4 7.9
2018-Jan-31 04:00N 29°57' W 093°51'3 5.8
2018-Jan-31 03:30N 29°59' W 093°54'3 6.0
2018-Jan-31 03:00N 30°01' W 093°57'3 5.4
2018-Jan-31 02:30N 30°01' W 094°00'3 5.3
2018-Jan-31 02:00N 30°03' W 094°02'3 5.1
2018-Jan-31 01:30N 30°05' W 094°04'0 0.8
2018-Jan-31 00:59N 30°05' W 094°05'  
Track history (hours):
 
Tides and Currents Weather Stations Pressure Air Temp Water Temp Dewpoint Dewpoint Depression Visibility Wind Speed Wind Dir Waves Ship Positions

Stolt Vanguard

Last reported at 2018-Feb-09 23:42 UTC. Time now 2018-Feb-23 10:53 UTC.
Position N 17°36' W 061°09'.
Warning: this ship's position is 13 days out of date.

Length 159 m; draft 10.5 m.

Type: Tanker. MMSI: 636015366.

Date/timePositionNaut miles runAvg speedWind from/ knotsBaromVisibWave heightAir tempDewpointWater temp
2018-Feb-09 23:42N 17°36' W 061°09'211.3
2018-Feb-09 23:31N 17°37' W 061°11'611.4
2018-Feb-09 23:01N 17°40' W 061°16'411.6
2018-Feb-09 22:38N 17°43' W 061°20'  
2018-Feb-03 02:00N 29°31' W 094°53'5 9.4
2018-Feb-03 01:31N 29°35' W 094°56'4 8.1
2018-Feb-03 01:00N 29°38' W 094°58'4 7.3
2018-Feb-03 00:30N 29°42' W 094°59'4 6.9
2018-Feb-02 23:58N 29°44' W 095°03'3 0.2
2018-Feb-02 07:00N 29°45' W 095°06'2 4.3
2018-Feb-02 06:30N 29°44' W 095°04'3 6.5
2018-Feb-02 06:00N 29°42' W 095°01'5 9.6
2018-Feb-02 05:30N 29°38' W 094°58'611.3
2018-Feb-02 05:00N 29°33' W 094°55'612.4
2018-Feb-02 04:30N 29°28' W 094°51'812.8
2018-Feb-02 03:54N 29°21' W 094°47'1011.9
2018-Feb-02 03:04N 29°18' W 094°36'5 0.3
2018-Feb-01 08:42N 29°16' W 094°31'0 0.0
2018-Feb-01 08:07N 29°16' W 094°31'0 0.0
2018-Feb-01 07:27N 29°16' W 094°31'0 0.5
2018-Feb-01 06:53N 29°16' W 094°30'2 4.5
2018-Feb-01 06:27N 29°14' W 094°30'2410.0
2018-Feb-01 04:02N 29°24' W 094°04'012.1
2018-Feb-01 04:00N 29°24' W 094°04'1212.1
2018-Feb-01 02:58N 29°30' W 093°52'611.6
2018-Feb-01 02:29N 29°33' W 093°46'510.2
2018-Feb-01 01:57N 29°38' W 093°49'510.3
2018-Feb-01 01:31N 29°42' W 093°51'5 9.0
2018-Feb-01 01:00N 29°46' W 093°54'4 8.1
2018-Feb-01 00:30N 29°48' W 093°57'2 3.5
2018-Feb-01 00:00N 29°50' W 093°57'0 0.0
2018-Jan-31 22:59N 29°50' W 093°57'0 0.0
2018-Jan-31 22:30N 29°50' W 093°57'0 0.0
2018-Jan-31 21:00N 29°50' W 093°57'0 0.0
2018-Jan-31 20:31N 29°50' W 093°57'0 0.0
2018-Jan-31 20:00N 29°50' W 093°57'0 0.0
2018-Jan-31 19:30N 29°50' W 093°57'0 0.0
2018-Jan-31 19:01N 29°50' W 093°57'0 0.0
2018-Jan-31 18:30N 29°50' W 093°57'0 0.0
2018-Jan-31 18:00N 29°50' W 093°57'0 0.0
2018-Jan-31 17:30N 29°50' W 093°57'0 0.0
2018-Jan-31 17:00N 29°50' W 093°57'0 0.0
2018-Jan-31 16:29N 29°50' W 093°57'0 0.0
2018-Jan-31 16:00N 29°50' W 093°57'0 0.0
2018-Jan-31 15:30N 29°50' W 093°57'0 0.0
2018-Jan-31 15:00N 29°50' W 093°57'0 0.0
2018-Jan-31 14:30N 29°50' W 093°57'0 0.0
2018-Jan-31 13:00N 29°50' W 093°57'0 0.0
2018-Jan-31 12:30N 29°50' W 093°57'0 0.0
2018-Jan-31 12:00N 29°50' W 093°57'0 0.0
2018-Jan-31 11:30N 29°50' W 093°57'0 0.0
2018-Jan-31 11:00N 29°50' W 093°57'0 0.0
2018-Jan-31 10:30N 29°50' W 093°57'0 0.0
2018-Jan-31 10:00N 29°50' W 093°57'0 0.0
2018-Jan-31 09:30N 29°50' W 093°57'0 0.0
2018-Jan-31 09:00N 29°50' W 093°57'0 0.0
2018-Jan-31 08:30N 29°50' W 093°57'0 0.0
2018-Jan-31 08:00N 29°50' W 093°57'0 0.0
2018-Jan-31 07:30N 29°50' W 093°57'0 0.0
2018-Jan-31 07:00N 29°50' W 093°57'0 0.0
2018-Jan-31 06:30N 29°50' W 093°57'0 0.0
2018-Jan-31 05:58N 29°50' W 093°57'0 1.0
2018-Jan-31 05:30N 29°50' W 093°58'2 4.1
2018-Jan-31 05:00N 29°51' W 093°56'3 6.9
2018-Jan-31 04:30N 29°54' W 093°54'4 7.9
2018-Jan-31 04:00N 29°57' W 093°51'3 5.8
2018-Jan-31 03:30N 29°59' W 093°54'3 6.0
2018-Jan-31 03:00N 30°01' W 093°57'3 5.4
2018-Jan-31 02:30N 30°01' W 094°00'3 5.3
2018-Jan-31 02:00N 30°03' W 094°02'3 5.1
2018-Jan-31 01:30N 30°05' W 094°04'0 0.8
2018-Jan-31 00:59N 30°05' W 094°05'  

Dump ship's entire track history